sensor_id;sensor_type;location;lat;lon;timestamp;temperature;humidity
65876;HTU21D;52657;51.128;5.938;2022-11-15T00:01:31;11.62;72.87
65876;HTU21D;52657;51.128;5.938;2022-11-15T00:04:16;11.64;72.87
65876;HTU21D;52657;51.128;5.938;2022-11-15T00:07:00;11.67;72.80
65876;HTU21D;52657;51.128;5.938;2022-11-15T00:09:44;11.68;72.86
65876;HTU21D;52657;51.128;5.938;2022-11-15T00:12:29;11.70;72.78
65876;HTU21D;52657;51.128;5.938;2022-11-15T00:15:13;11.70;72.74
65876;HTU21D;52657;51.128;5.938;2022-11-15T00:17:57;11.70;72.82
65876;HTU21D;52657;51.128;5.938;2022-11-15T00:20:42;11.71;72.87
65876;HTU21D;52657;51.128;5.938;2022-11-15T00:23:27;11.72;72.91
65876;HTU21D;52657;51.128;5.938;2022-11-15T00:26:13;11.74;72.88
65876;HTU21D;52657;51.128;5.938;2022-11-15T00:28:57;11.74;73.04
65876;HTU21D;52657;51.128;5.938;2022-11-15T00:31:42;11.75;73.12
65876;HTU21D;52657;51.128;5.938;2022-11-15T00:34:26;11.76;73.22
65876;HTU21D;52657;51.128;5.938;2022-11-15T00:37:10;11.77;73.34
65876;HTU21D;52657;51.128;5.938;2022-11-15T00:39:55;11.79;73.42
65876;HTU21D;52657;51.128;5.938;2022-11-15T00:42:40;11.79;73.81
65876;HTU21D;52657;51.128;5.938;2022-11-15T00:45:24;11.81;74.18
65876;HTU21D;52657;51.128;5.938;2022-11-15T00:48:09;11.81;74.47
65876;HTU21D;52657;51.128;5.938;2022-11-15T00:50:53;11.84;75.02
65876;HTU21D;52657;51.128;5.938;2022-11-15T00:53:37;11.88;74.96
65876;HTU21D;52657;51.128;5.938;2022-11-15T00:56:22;11.91;75.52
65876;HTU21D;52657;51.128;5.938;2022-11-15T00:59:06;11.98;75.83
65876;HTU21D;52657;51.128;5.938;2022-11-15T01:01:50;12.01;76.31
65876;HTU21D;52657;51.128;5.938;2022-11-15T01:04:35;12.05;76.41
65876;HTU21D;52657;51.128;5.938;2022-11-15T01:07:19;12.11;76.53
65876;HTU21D;52657;51.128;5.938;2022-11-15T01:10:04;12.15;76.55
65876;HTU21D;52657;51.128;5.938;2022-11-15T01:12:49;12.20;76.84
65876;HTU21D;52657;51.128;5.938;2022-11-15T01:15:33;12.26;76.94
65876;HTU21D;52657;51.128;5.938;2022-11-15T01:18:17;12.30;77.75
65876;HTU21D;52657;51.128;5.938;2022-11-15T01:21:07;12.38;78.34
65876;HTU21D;52657;51.128;5.938;2022-11-15T01:23:53;12.46;78.45
65876;HTU21D;52657;51.128;5.938;2022-11-15T01:26:39;12.53;78.68
65876;HTU21D;52657;51.128;5.938;2022-11-15T01:29:23;12.61;78.66
65876;HTU21D;52657;51.128;5.938;2022-11-15T01:32:07;12.66;78.66
65876;HTU21D;52657;51.128;5.938;2022-11-15T01:34:52;12.72;78.50
65876;HTU21D;52657;51.128;5.938;2022-11-15T01:37:36;12.77;78.34
65876;HTU21D;52657;51.128;5.938;2022-11-15T01:40:21;12.78;78.33
65876;HTU21D;52657;51.128;5.938;2022-11-15T01:43:32;12.79;78.10
65876;HTU21D;52657;51.128;5.938;2022-11-15T01:46:22;12.81;78.21
65876;HTU21D;52657;51.128;5.938;2022-11-15T01:49:15;12.84;78.26
65876;HTU21D;52657;51.128;5.938;2022-11-15T01:52:05;12.86;78.24
65876;HTU21D;52657;51.128;5.938;2022-11-15T01:55:16;12.87;78.36
65876;HTU21D;52657;51.128;5.938;2022-11-15T01:58:02;12.89;78.25
65876;HTU21D;52657;51.128;5.938;2022-11-15T02:00:48;12.91;78.37
65876;HTU21D;52657;51.128;5.938;2022-11-15T02:06:53;12.99;78.57
65876;HTU21D;52657;51.128;5.938;2022-11-15T02:09:38;13.03;78.61
65876;HTU21D;52657;51.128;5.938;2022-11-15T02:12:23;13.07;78.85
65876;HTU21D;52657;51.128;5.938;2022-11-15T02:15:09;13.10;78.77
65876;HTU21D;52657;51.128;5.938;2022-11-15T02:18:15;13.14;78.85
65876;HTU21D;52657;51.128;5.938;2022-11-15T02:21:36;13.18;78.72
65876;HTU21D;52657;51.128;5.938;2022-11-15T02:27:24;13.29;78.80
65876;HTU21D;52657;51.128;5.938;2022-11-15T02:34:11;13.35;78.50
65876;HTU21D;52657;51.128;5.938;2022-11-15T02:37:11;13.37;78.50
65876;HTU21D;52657;51.128;5.938;2022-11-15T02:40:17;13.44;78.49
65876;HTU21D;52657;51.128;5.938;2022-11-15T02:43:11;13.46;78.56
65876;HTU21D;52657;51.128;5.938;2022-11-15T02:49:34;13.50;78.29
65876;HTU21D;52657;51.128;5.938;2022-11-15T02:52:21;13.53;78.34
65876;HTU21D;52657;51.128;5.938;2022-11-15T02:55:29;13.54;78.39
65876;HTU21D;52657;51.128;5.938;2022-11-15T02:58:56;13.55;78.47
65876;HTU21D;52657;51.128;5.938;2022-11-15T03:04:44;13.59;79.17
65876;HTU21D;52657;51.128;5.938;2022-11-15T03:13:57;13.64;79.59
65876;HTU21D;52657;51.128;5.938;2022-11-15T03:19:58;13.68;79.38
65876;HTU21D;52657;51.128;5.938;2022-11-15T03:22:47;13.69;79.62
65876;HTU21D;52657;51.128;5.938;2022-11-15T03:25:36;13.73;79.60
65876;HTU21D;52657;51.128;5.938;2022-11-15T03:29:09;13.74;79.56
65876;HTU21D;52657;51.128;5.938;2022-11-15T03:31:39;13.75;79.46
65876;HTU21D;52657;51.128;5.938;2022-11-15T03:34:52;13.76;79.35
65876;HTU21D;52657;51.128;5.938;2022-11-15T03:37:45;13.77;79.36
65876;HTU21D;52657;51.128;5.938;2022-11-15T03:40:40;13.77;79.36
65876;HTU21D;52657;51.128;5.938;2022-11-15T03:43:53;13.76;79.49
65876;HTU21D;52657;51.128;5.938;2022-11-15T03:46:51;13.75;79.68
65876;HTU21D;52657;51.128;5.938;2022-11-15T03:49:44;13.78;79.37
65876;HTU21D;52657;51.128;5.938;2022-11-15T03:52:33;13.77;79.39
65876;HTU21D;52657;51.128;5.938;2022-11-15T03:55:20;13.81;79.30
65876;HTU21D;52657;51.128;5.938;2022-11-15T03:58:05;13.81;79.27
65876;HTU21D;52657;51.128;5.938;2022-11-15T04:00:49;13.85;79.05
65876;HTU21D;52657;51.128;5.938;2022-11-15T04:03:34;13.88;78.83
65876;HTU21D;52657;51.128;5.938;2022-11-15T04:06:18;13.86;78.77
65876;HTU21D;52657;51.128;5.938;2022-11-15T04:09:03;13.88;78.88
65876;HTU21D;52657;51.128;5.938;2022-11-15T04:11:47;13.88;78.95
65876;HTU21D;52657;51.128;5.938;2022-11-15T04:14:31;13.88;78.94
65876;HTU21D;52657;51.128;5.938;2022-11-15T04:17:16;13.89;78.79
65876;HTU21D;52657;51.128;5.938;2022-11-15T04:20:00;13.91;78.66
65876;HTU21D;52657;51.128;5.938;2022-11-15T04:23:06;13.91;78.59
65876;HTU21D;52657;51.128;5.938;2022-11-15T04:26:20;13.91;78.61
65876;HTU21D;52657;51.128;5.938;2022-11-15T04:29:04;13.89;78.65
65876;HTU21D;52657;51.128;5.938;2022-11-15T04:32:08;13.89;78.67
65876;HTU21D;52657;51.128;5.938;2022-11-15T04:34:52;13.90;78.55
65876;HTU21D;52657;51.128;5.938;2022-11-15T04:37:37;13.89;78.51
65876;HTU21D;52657;51.128;5.938;2022-11-15T04:40:21;13.88;78.53
65876;HTU21D;52657;51.128;5.938;2022-11-15T04:43:05;13.88;78.52
65876;HTU21D;52657;51.128;5.938;2022-11-15T04:45:50;13.89;78.50
65876;HTU21D;52657;51.128;5.938;2022-11-15T04:48:34;13.90;78.44
65876;HTU21D;52657;51.128;5.938;2022-11-15T04:51:18;13.91;78.35
65876;HTU21D;52657;51.128;5.938;2022-11-15T04:54:03;13.92;78.30
65876;HTU21D;52657;51.128;5.938;2022-11-15T04:56:48;13.94;78.24
65876;HTU21D;52657;51.128;5.938;2022-11-15T04:59:32;13.94;78.19
65876;HTU21D;52657;51.128;5.938;2022-11-15T05:02:16;13.93;78.18
65876;HTU21D;52657;51.128;5.938;2022-11-15T05:05:00;13.93;78.19
65876;HTU21D;52657;51.128;5.938;2022-11-15T05:07:44;13.92;78.27
65876;HTU21D;52657;51.128;5.938;2022-11-15T05:10:28;13.89;78.42
65876;HTU21D;52657;51.128;5.938;2022-11-15T05:13:13;13.88;78.59
65876;HTU21D;52657;51.128;5.938;2022-11-15T05:15:57;13.88;78.63
65876;HTU21D;52657;51.128;5.938;2022-11-15T05:18:42;13.88;78.70
65876;HTU21D;52657;51.128;5.938;2022-11-15T05:21:26;13.90;78.87
65876;HTU21D;52657;51.128;5.938;2022-11-15T05:24:10;13.93;78.87
65876;HTU21D;52657;51.128;5.938;2022-11-15T05:26:55;13.93;79.20
65876;HTU21D;52657;51.128;5.938;2022-11-15T05:29:39;13.93;79.07
65876;HTU21D;52657;51.128;5.938;2022-11-15T05:32:24;13.94;79.06
65876;HTU21D;52657;51.128;5.938;2022-11-15T05:35:18;13.96;79.17
65876;HTU21D;52657;51.128;5.938;2022-11-15T05:38:03;13.98;79.33
65876;HTU21D;52657;51.128;5.938;2022-11-15T05:40:48;13.98;79.47
65876;HTU21D;52657;51.128;5.938;2022-11-15T05:43:36;13.99;79.54
65876;HTU21D;52657;51.128;5.938;2022-11-15T05:46:22;14.00;79.59
65876;HTU21D;52657;51.128;5.938;2022-11-15T05:49:14;14.04;79.57
65876;HTU21D;52657;51.128;5.938;2022-11-15T05:52:00;14.06;79.58
65876;HTU21D;52657;51.128;5.938;2022-11-15T05:54:46;14.08;79.40
65876;HTU21D;52657;51.128;5.938;2022-11-15T05:57:31;14.10;79.39
65876;HTU21D;52657;51.128;5.938;2022-11-15T06:00:15;14.08;79.53
65876;HTU21D;52657;51.128;5.938;2022-11-15T06:02:59;14.04;79.76
65876;HTU21D;52657;51.128;5.938;2022-11-15T06:05:43;14.03;80.04
65876;HTU21D;52657;51.128;5.938;2022-11-15T06:08:27;14.05;80.13
65876;HTU21D;52657;51.128;5.938;2022-11-15T06:11:12;14.03;80.26
65876;HTU21D;52657;51.128;5.938;2022-11-15T06:13:56;13.97;80.56
65876;HTU21D;52657;51.128;5.938;2022-11-15T06:16:41;13.96;80.55
65876;HTU21D;52657;51.128;5.938;2022-11-15T06:19:25;13.92;80.50
65876;HTU21D;52657;51.128;5.938;2022-11-15T06:22:09;13.89;80.40
65876;HTU21D;52657;51.128;5.938;2022-11-15T06:24:53;13.86;79.95
65876;HTU21D;52657;51.128;5.938;2022-11-15T06:27:38;13.86;79.46
65876;HTU21D;52657;51.128;5.938;2022-11-15T06:30:24;13.85;79.03
65876;HTU21D;52657;51.128;5.938;2022-11-15T06:33:08;13.82;78.69
65876;HTU21D;52657;51.128;5.938;2022-11-15T06:35:52;13.80;78.32
65876;HTU21D;52657;51.128;5.938;2022-11-15T06:38:37;13.75;78.27
65876;HTU21D;52657;51.128;5.938;2022-11-15T06:41:21;13.73;78.30
65876;HTU21D;52657;51.128;5.938;2022-11-15T06:44:06;13.67;78.16
65876;HTU21D;52657;51.128;5.938;2022-11-15T06:46:50;13.63;78.23
65876;HTU21D;52657;51.128;5.938;2022-11-15T06:49:34;13.65;78.24
65876;HTU21D;52657;51.128;5.938;2022-11-15T06:52:18;13.67;78.02
65876;HTU21D;52657;51.128;5.938;2022-11-15T06:55:03;13.67;77.87
65876;HTU21D;52657;51.128;5.938;2022-11-15T06:57:50;13.68;77.78
65876;HTU21D;52657;51.128;5.938;2022-11-15T07:00:34;13.70;77.61
65876;HTU21D;52657;51.128;5.938;2022-11-15T07:03:19;13.70;77.61
65876;HTU21D;52657;51.128;5.938;2022-11-15T07:06:03;13.71;77.53
65876;HTU21D;52657;51.128;5.938;2022-11-15T07:08:48;13.69;77.54
65876;HTU21D;52657;51.128;5.938;2022-11-15T07:11:33;13.69;77.60
65876;HTU21D;52657;51.128;5.938;2022-11-15T07:14:17;13.71;77.53
65876;HTU21D;52657;51.128;5.938;2022-11-15T07:17:05;13.68;77.60
65876;HTU21D;52657;51.128;5.938;2022-11-15T07:19:51;13.67;77.60
65876;HTU21D;52657;51.128;5.938;2022-11-15T07:22:35;13.69;77.59
65876;HTU21D;52657;51.128;5.938;2022-11-15T07:25:19;13.71;77.58
65876;HTU21D;52657;51.128;5.938;2022-11-15T07:28:04;13.73;77.56
65876;HTU21D;52657;51.128;5.938;2022-11-15T07:30:48;13.74;77.44
65876;HTU21D;52657;51.128;5.938;2022-11-15T07:33:33;13.73;77.39
65876;HTU21D;52657;51.128;5.938;2022-11-15T07:36:18;13.73;77.33
65876;HTU21D;52657;51.128;5.938;2022-11-15T07:39:03;13.73;77.28
65876;HTU21D;52657;51.128;5.938;2022-11-15T07:41:48;13.73;77.18
65876;HTU21D;52657;51.128;5.938;2022-11-15T07:44:33;13.75;77.20
65876;HTU21D;52657;51.128;5.938;2022-11-15T07:47:17;13.76;76.97
65876;HTU21D;52657;51.128;5.938;2022-11-15T07:50:02;13.74;76.79
65876;HTU21D;52657;51.128;5.938;2022-11-15T07:52:46;13.75;76.79
65876;HTU21D;52657;51.128;5.938;2022-11-15T07:55:31;13.74;76.66
65876;HTU21D;52657;51.128;5.938;2022-11-15T07:58:15;13.76;76.58
65876;HTU21D;52657;51.128;5.938;2022-11-15T08:01:04;13.74;76.62
65876;HTU21D;52657;51.128;5.938;2022-11-15T08:03:49;13.77;76.57
65876;HTU21D;52657;51.128;5.938;2022-11-15T08:06:33;13.78;76.53
65876;HTU21D;52657;51.128;5.938;2022-11-15T08:09:17;13.80;76.55
65876;HTU21D;52657;51.128;5.938;2022-11-15T08:12:02;13.93;76.50
65876;HTU21D;52657;51.128;5.938;2022-11-15T08:14:47;14.01;76.24
65876;HTU21D;52657;51.128;5.938;2022-11-15T08:17:32;14.13;76.02
65876;HTU21D;52657;51.128;5.938;2022-11-15T08:20:17;14.24;75.66
65876;HTU21D;52657;51.128;5.938;2022-11-15T08:23:04;14.33;75.42
65876;HTU21D;52657;51.128;5.938;2022-11-15T08:25:49;14.44;75.07
65876;HTU21D;52657;51.128;5.938;2022-11-15T08:28:33;14.55;74.67
65876;HTU21D;52657;51.128;5.938;2022-11-15T08:31:20;14.66;74.35
65876;HTU21D;52657;51.128;5.938;2022-11-15T08:34:05;14.83;73.96
65876;HTU21D;52657;51.128;5.938;2022-11-15T08:36:50;15.02;73.08
65876;HTU21D;52657;51.128;5.938;2022-11-15T08:39:34;15.16;72.33
65876;HTU21D;52657;51.128;5.938;2022-11-15T08:42:19;15.34;71.73
65876;HTU21D;52657;51.128;5.938;2022-11-15T08:45:03;15.66;71.32
65876;HTU21D;52657;51.128;5.938;2022-11-15T08:47:48;15.81;69.86
65876;HTU21D;52657;51.128;5.938;2022-11-15T08:50:32;15.86;68.92
65876;HTU21D;52657;51.128;5.938;2022-11-15T08:53:19;15.75;68.30
65876;HTU21D;52657;51.128;5.938;2022-11-15T08:56:08;15.61;67.64
65876;HTU21D;52657;51.128;5.938;2022-11-15T08:58:53;15.45;67.86
65876;HTU21D;52657;51.128;5.938;2022-11-15T09:01:37;15.44;68.00
65876;HTU21D;52657;51.128;5.938;2022-11-15T09:04:22;15.44;67.28
65876;HTU21D;52657;51.128;5.938;2022-11-15T09:07:06;15.41;67.07
65876;HTU21D;52657;51.128;5.938;2022-11-15T09:09:51;15.46;66.32
65876;HTU21D;52657;51.128;5.938;2022-11-15T09:12:35;15.41;65.09
65876;HTU21D;52657;51.128;5.938;2022-11-15T09:15:20;15.36;65.06
65876;HTU21D;52657;51.128;5.938;2022-11-15T09:18:05;15.39;64.69
65876;HTU21D;52657;51.128;5.938;2022-11-15T09:20:49;15.39;63.94
65876;HTU21D;52657;51.128;5.938;2022-11-15T09:23:33;15.51;64.01
65876;HTU21D;52657;51.128;5.938;2022-11-15T09:26:18;15.60;63.08
65876;HTU21D;52657;51.128;5.938;2022-11-15T09:29:03;15.60;62.12
65876;HTU21D;52657;51.128;5.938;2022-11-15T09:31:48;15.57;62.08
65876;HTU21D;52657;51.128;5.938;2022-11-15T09:34:32;15.86;61.77
65876;HTU21D;52657;51.128;5.938;2022-11-15T09:37:16;16.39;61.07
65876;HTU21D;52657;51.128;5.938;2022-11-15T09:40:04;16.89;59.45
65876;HTU21D;52657;51.128;5.938;2022-11-15T09:43:09;17.29;57.89
65876;HTU21D;52657;51.128;5.938;2022-11-15T09:49:02;18.19;55.00
65876;HTU21D;52657;51.128;5.938;2022-11-15T09:51:36;18.32;54.54
65876;HTU21D;52657;51.128;5.938;2022-11-15T09:54:10;18.43;53.53
65876;HTU21D;52657;51.128;5.938;2022-11-15T09:56:41;18.36;53.23
65876;HTU21D;52657;51.128;5.938;2022-11-15T10:02:20;18.02;52.65
65876;HTU21D;52657;51.128;5.938;2022-11-15T10:04:50;17.65;53.42
65876;HTU21D;52657;51.128;5.938;2022-11-15T10:07:31;17.32;54.30
65876;HTU21D;52657;51.128;5.938;2022-11-15T10:12:53;16.67;55.46
65876;HTU21D;52657;51.128;5.938;2022-11-15T10:15:20;16.42;56.07
65876;HTU21D;52657;51.128;5.938;2022-11-15T10:18:07;16.12;56.55
65876;HTU21D;52657;51.128;5.938;2022-11-15T10:20:53;15.91;56.97
65876;HTU21D;52657;51.128;5.938;2022-11-15T10:23:22;15.73;57.13
65876;HTU21D;52657;51.128;5.938;2022-11-15T10:25:51;15.61;57.30
65876;HTU21D;52657;51.128;5.938;2022-11-15T10:28:22;15.56;57.98
65876;HTU21D;52657;51.128;5.938;2022-11-15T10:30:56;15.56;58.32
65876;HTU21D;52657;51.128;5.938;2022-11-15T10:36:18;15.51;57.74
65876;HTU21D;52657;51.128;5.938;2022-11-15T10:46:36;15.33;57.55
65876;HTU21D;52657;51.128;5.938;2022-11-15T10:49:23;15.36;57.80
65876;HTU21D;52657;51.128;5.938;2022-11-15T10:51:57;15.39;57.35
65876;HTU21D;52657;51.128;5.938;2022-11-15T10:56:59;15.39;56.66
65876;HTU21D;52657;51.128;5.938;2022-11-15T10:59:32;15.42;57.58
65876;HTU21D;52657;51.128;5.938;2022-11-15T11:02:01;15.48;57.95
65876;HTU21D;52657;51.128;5.938;2022-11-15T11:04:49;15.53;57.57
65876;HTU21D;52657;51.128;5.938;2022-11-15T11:07:25;15.56;57.18
65876;HTU21D;52657;51.128;5.938;2022-11-15T11:12:30;15.63;57.16
65876;HTU21D;52657;51.128;5.938;2022-11-15T11:14:58;15.68;56.07
65876;HTU21D;52657;51.128;5.938;2022-11-15T11:18:01;15.75;56.24
65876;HTU21D;52657;51.128;5.938;2022-11-15T11:20:37;15.88;56.16
65876;HTU21D;52657;51.128;5.938;2022-11-15T11:23:27;15.91;55.48
65876;HTU21D;52657;51.128;5.938;2022-11-15T11:31:19;16.14;55.10
65876;HTU21D;52657;51.128;5.938;2022-11-15T11:42:42;16.21;54.07
65876;HTU21D;52657;51.128;5.938;2022-11-15T11:48:20;16.22;53.76
65876;HTU21D;52657;51.128;5.938;2022-11-15T11:50:49;16.20;53.23
65876;HTU21D;52657;51.128;5.938;2022-11-15T11:53:27;16.24;53.39
65876;HTU21D;52657;51.128;5.938;2022-11-15T11:55:58;16.27;53.13
65876;HTU21D;52657;51.128;5.938;2022-11-15T11:58:46;16.26;53.80
65876;HTU21D;52657;51.128;5.938;2022-11-15T12:01:26;16.29;53.82
65876;HTU21D;52657;51.128;5.938;2022-11-15T12:12:23;16.32;52.01
65876;HTU21D;52657;51.128;5.938;2022-11-15T12:15:23;16.40;52.01
65876;HTU21D;52657;51.128;5.938;2022-11-15T12:17:46;16.44;51.44
65876;HTU21D;52657;51.128;5.938;2022-11-15T12:20:20;16.42;51.21
65876;HTU21D;52657;51.128;5.938;2022-11-15T12:23:08;16.37;51.24
65876;HTU21D;52657;51.128;5.938;2022-11-15T12:26:04;16.41;51.55
65876;HTU21D;52657;51.128;5.938;2022-11-15T12:28:38;16.40;52.19
65876;HTU21D;52657;51.128;5.938;2022-11-15T12:31:11;16.41;52.36
65876;HTU21D;52657;51.128;5.938;2022-11-15T12:33:44;16.40;52.14
65876;HTU21D;52657;51.128;5.938;2022-11-15T12:36:34;16.45;52.20
65876;HTU21D;52657;51.128;5.938;2022-11-15T12:39:08;16.49;51.96
65876;HTU21D;52657;51.128;5.938;2022-11-15T12:42:23;16.57;52.03
65876;HTU21D;52657;51.128;5.938;2022-11-15T12:59:56;16.52;53.20
65876;HTU21D;52657;51.128;5.938;2022-11-15T13:02:39;16.54;53.40
65876;HTU21D;52657;51.128;5.938;2022-11-15T13:17:46;16.59;54.52
65876;HTU21D;52657;51.128;5.938;2022-11-15T13:25:26;16.63;54.94
65876;HTU21D;52657;51.128;5.938;2022-11-15T13:27:53;16.67;55.19
65876;HTU21D;52657;51.128;5.938;2022-11-15T13:30:27;16.70;55.25
65876;HTU21D;52657;51.128;5.938;2022-11-15T13:32:53;16.70;55.22
65876;HTU21D;52657;51.128;5.938;2022-11-15T13:35:26;16.76;55.26
65876;HTU21D;52657;51.128;5.938;2022-11-15T13:37:54;16.78;55.51
65876;HTU21D;52657;51.128;5.938;2022-11-15T13:40:29;16.84;55.55
65876;HTU21D;52657;51.128;5.938;2022-11-15T13:42:58;16.86;55.20
65876;HTU21D;52657;51.128;5.938;2022-11-15T13:45:25;16.86;55.49
65876;HTU21D;52657;51.128;5.938;2022-11-15T13:47:56;16.89;55.42
65876;HTU21D;52657;51.128;5.938;2022-11-15T13:50:33;16.87;55.60
65876;HTU21D;52657;51.128;5.938;2022-11-15T13:53:03;16.85;55.58
65876;HTU21D;52657;51.128;5.938;2022-11-15T13:55:32;16.81;55.61
65876;HTU21D;52657;51.128;5.938;2022-11-15T13:58:02;16.79;55.54
65876;HTU21D;52657;51.128;5.938;2022-11-15T14:00:38;16.77;55.56
65876;HTU21D;52657;51.128;5.938;2022-11-15T14:03:29;16.74;55.87
65876;HTU21D;52657;51.128;5.938;2022-11-15T14:06:14;16.70;56.22
65876;HTU21D;52657;51.128;5.938;2022-11-15T14:11:25;16.71;56.48
65876;HTU21D;52657;51.128;5.938;2022-11-15T14:16:54;16.69;56.13
65876;HTU21D;52657;51.128;5.938;2022-11-15T14:22:08;16.69;56.71
65876;HTU21D;52657;51.128;5.938;2022-11-15T14:24:35;16.72;57.03
65876;HTU21D;52657;51.128;5.938;2022-11-15T14:27:23;16.70;56.81
65876;HTU21D;52657;51.128;5.938;2022-11-15T14:29:50;16.69;56.63
65876;HTU21D;52657;51.128;5.938;2022-11-15T14:32:22;16.67;56.90
65876;HTU21D;52657;51.128;5.938;2022-11-15T14:34:57;16.67;57.17
65876;HTU21D;52657;51.128;5.938;2022-11-15T14:37:29;16.70;57.09
65876;HTU21D;52657;51.128;5.938;2022-11-15T14:39:58;16.71;56.93
65876;HTU21D;52657;51.128;5.938;2022-11-15T14:42:25;16.72;56.81
65876;HTU21D;52657;51.128;5.938;2022-11-15T14:44:51;16.70;56.82
65876;HTU21D;52657;51.128;5.938;2022-11-15T14:47:17;16.71;57.35
65876;HTU21D;52657;51.128;5.938;2022-11-15T14:49:43;16.71;57.18
65876;HTU21D;52657;51.128;5.938;2022-11-15T14:54:51;16.67;56.96
65876;HTU21D;52657;51.128;5.938;2022-11-15T14:57:17;16.64;56.99
65876;HTU21D;52657;51.128;5.938;2022-11-15T14:59:45;16.59;57.14
65876;HTU21D;52657;51.128;5.938;2022-11-15T15:02:24;16.52;57.31
65876;HTU21D;52657;51.128;5.938;2022-11-15T15:04:51;16.46;57.45
65876;HTU21D;52657;51.128;5.938;2022-11-15T15:07:16;16.41;57.63
65876;HTU21D;52657;51.128;5.938;2022-11-15T15:09:44;16.39;57.67
65876;HTU21D;52657;51.128;5.938;2022-11-15T15:12:21;16.33;57.80
65876;HTU21D;52657;51.128;5.938;2022-11-15T15:14:49;16.31;58.07
65876;HTU21D;52657;51.128;5.938;2022-11-15T15:17:16;16.26;58.35
65876;HTU21D;52657;51.128;5.938;2022-11-15T15:19:43;16.21;58.64
65876;HTU21D;52657;51.128;5.938;2022-11-15T15:22:16;16.17;58.83
65876;HTU21D;52657;51.128;5.938;2022-11-15T15:24:44;16.16;58.91
65876;HTU21D;52657;51.128;5.938;2022-11-15T15:27:11;16.15;58.78
65876;HTU21D;52657;51.128;5.938;2022-11-15T15:29:37;16.13;58.89
65876;HTU21D;52657;51.128;5.938;2022-11-15T15:32:03;16.10;58.88
65876;HTU21D;52657;51.128;5.938;2022-11-15T15:34:30;16.11;58.82
65876;HTU21D;52657;51.128;5.938;2022-11-15T15:37:25;16.10;58.64
65876;HTU21D;52657;51.128;5.938;2022-11-15T15:39:55;16.07;58.64
65876;HTU21D;52657;51.128;5.938;2022-11-15T15:42:23;16.07;58.58
65876;HTU21D;52657;51.128;5.938;2022-11-15T15:44:50;16.07;58.60
65876;HTU21D;52657;51.128;5.938;2022-11-15T15:47:20;16.06;58.55
65876;HTU21D;52657;51.128;5.938;2022-11-15T15:49:47;16.06;58.70
65876;HTU21D;52657;51.128;5.938;2022-11-15T15:52:14;16.08;58.78
65876;HTU21D;52657;51.128;5.938;2022-11-15T15:54:40;16.10;58.80
65876;HTU21D;52657;51.128;5.938;2022-11-15T15:57:07;16.07;58.76
65876;HTU21D;52657;51.128;5.938;2022-11-15T15:59:34;16.03;58.99
65876;HTU21D;52657;51.128;5.938;2022-11-15T16:01:59;16.00;59.46
65876;HTU21D;52657;51.128;5.938;2022-11-15T16:04:25;15.98;59.81
65876;HTU21D;52657;51.128;5.938;2022-11-15T16:06:51;15.96;59.80
65876;HTU21D;52657;51.128;5.938;2022-11-15T16:09:20;15.95;60.11
65876;HTU21D;52657;51.128;5.938;2022-11-15T16:12:06;15.98;60.11
65876;HTU21D;52657;51.128;5.938;2022-11-15T16:14:32;16.02;60.25
65876;HTU21D;52657;51.128;5.938;2022-11-15T16:16:57;16.00;60.27
65876;HTU21D;52657;51.128;5.938;2022-11-15T16:19:23;15.98;60.56
65876;HTU21D;52657;51.128;5.938;2022-11-15T16:21:49;15.95;60.83
65876;HTU21D;52657;51.128;5.938;2022-11-15T16:24:18;15.96;61.45
65876;HTU21D;52657;51.128;5.938;2022-11-15T16:26:45;15.91;62.00
65876;HTU21D;52657;51.128;5.938;2022-11-15T16:29:20;15.90;62.40
65876;HTU21D;52657;51.128;5.938;2022-11-15T16:31:46;15.89;63.11
65876;HTU21D;52657;51.128;5.938;2022-11-15T16:34:12;15.88;63.24
65876;HTU21D;52657;51.128;5.938;2022-11-15T16:36:38;15.90;63.56
65876;HTU21D;52657;51.128;5.938;2022-11-15T16:39:04;15.92;63.91
65876;HTU21D;52657;51.128;5.938;2022-11-15T16:41:30;15.93;64.57
65876;HTU21D;52657;51.128;5.938;2022-11-15T16:43:56;15.91;64.76
65876;HTU21D;52657;51.128;5.938;2022-11-15T16:46:24;15.87;64.95
65876;HTU21D;52657;51.128;5.938;2022-11-15T16:48:51;15.83;65.39
65876;HTU21D;52657;51.128;5.938;2022-11-15T16:51:18;15.78;66.03
65876;HTU21D;52657;51.128;5.938;2022-11-15T16:53:44;15.78;67.01
65876;HTU21D;52657;51.128;5.938;2022-11-15T16:56:28;15.77;67.33
65876;HTU21D;52657;51.128;5.938;2022-11-15T16:58:59;15.77;67.62
65876;HTU21D;52657;51.128;5.938;2022-11-15T17:01:27;15.74;68.13
65876;HTU21D;52657;51.128;5.938;2022-11-15T17:03:54;15.75;69.09
65876;HTU21D;52657;51.128;5.938;2022-11-15T17:06:21;15.75;68.71
65876;HTU21D;52657;51.128;5.938;2022-11-15T17:08:47;15.69;68.15
65876;HTU21D;52657;51.128;5.938;2022-11-15T17:11:21;15.61;68.37
65876;HTU21D;52657;51.128;5.938;2022-11-15T17:13:47;15.54;68.40
65876;HTU21D;52657;51.128;5.938;2022-11-15T17:16:16;15.49;69.05
65876;HTU21D;52657;51.128;5.938;2022-11-15T17:18:43;15.43;69.29
65876;HTU21D;52657;51.128;5.938;2022-11-15T17:21:14;15.39;69.49
65876;HTU21D;52657;51.128;5.938;2022-11-15T17:23:42;15.31;69.57
65876;HTU21D;52657;51.128;5.938;2022-11-15T17:26:09;15.23;70.00
65876;HTU21D;52657;51.128;5.938;2022-11-15T17:28:36;15.18;70.38
65876;HTU21D;52657;51.128;5.938;2022-11-15T17:31:06;15.19;70.65
65876;HTU21D;52657;51.128;5.938;2022-11-15T17:33:33;15.21;70.89
65876;HTU21D;52657;51.128;5.938;2022-11-15T17:36:01;15.19;71.06
65876;HTU21D;52657;51.128;5.938;2022-11-15T17:38:28;15.18;71.26
65876;HTU21D;52657;51.128;5.938;2022-11-15T17:41:13;15.16;71.32
65876;HTU21D;52657;51.128;5.938;2022-11-15T17:43:39;15.15;71.44
65876;HTU21D;52657;51.128;5.938;2022-11-15T17:46:11;15.11;71.50
65876;HTU21D;52657;51.128;5.938;2022-11-15T17:48:37;15.10;71.74
65876;HTU21D;52657;51.128;5.938;2022-11-15T17:51:05;15.01;71.91
65876;HTU21D;52657;51.128;5.938;2022-11-15T17:53:34;14.96;72.38
65876;HTU21D;52657;51.128;5.938;2022-11-15T17:56:05;14.94;72.67
65876;HTU21D;52657;51.128;5.938;2022-11-15T17:58:31;14.89;72.99
65876;HTU21D;52657;51.128;5.938;2022-11-15T18:01:09;14.82;73.29
65876;HTU21D;52657;51.128;5.938;2022-11-15T18:03:37;14.80;73.37
65876;HTU21D;52657;51.128;5.938;2022-11-15T18:06:07;14.81;73.57
65876;HTU21D;52657;51.128;5.938;2022-11-15T18:08:38;14.83;73.47
65876;HTU21D;52657;51.128;5.938;2022-11-15T18:11:11;14.82;73.58
65876;HTU21D;52657;51.128;5.938;2022-11-15T18:13:38;14.83;73.70
65876;HTU21D;52657;51.128;5.938;2022-11-15T18:16:07;14.81;73.84
65876;HTU21D;52657;51.128;5.938;2022-11-15T18:18:35;14.80;74.08
65876;HTU21D;52657;51.128;5.938;2022-11-15T18:21:05;14.80;74.33
65876;HTU21D;52657;51.128;5.938;2022-11-15T18:23:32;14.78;74.41
65876;HTU21D;52657;51.128;5.938;2022-11-15T18:26:00;14.78;74.52
65876;HTU21D;52657;51.128;5.938;2022-11-15T18:28:37;14.75;74.71
65876;HTU21D;52657;51.128;5.938;2022-11-15T18:31:14;14.81;74.79
65876;HTU21D;52657;51.128;5.938;2022-11-15T18:33:41;14.85;74.74
65876;HTU21D;52657;51.128;5.938;2022-11-15T18:36:10;14.88;74.54